HTDO

Dodoma Airport

Dodoma, Tanzania
HTDO 201100Z 2012/2112 09008KT 9999 SCT025 FEW026CB
Issued Valid From Valid To
Apr-20 @ 11:00 UTC
(8 hours ago)
Apr-20 @ 12:00 UTC
(7 hours ago)
Apr-21 @ 12:00 UTC
(in 17 hours)
Apr-20 @ 12:00 to Apr-21 @ 12:00
HTDO 201100Z 2012/2112 09008KT 9999 SCT025 FEW026CB
Wind Visibility Clouds
90° at 8 knots 10,000+ meters
  • Scattered at 2,500' AGL
  • Few at 2,600' AGL
HTDO 201100Z 2012/2112 09008KT 9999 SCT025 FEW026CB
Issued Apr-20 @ 11:00 UTC
(8 hours ago)
Valid From Apr-20 @ 12:00 UTC
(7 hours ago)
Valid To Apr-21 @ 12:00 UTC
(in 17 hours)
Apr-20 @ 12:00 - Apr-21 @ 12:00
Wind Visibility
90° at 8 knots 10,000+ meters
Clouds
  • Scattered at 2,500' AGL
  • Few at 2,600' AGL